Time;durP1;ratioP1;P1;durP2;ratioP2;P2;SDS_P1;SDS_P2;PMS_P1;PMS_P2;Temp;Humidity;BMP_temperature;BMP_pressure;BME280_temperature;BME280_humidity;BME280_pressure;Samples;Min_cycle;Max_cycle;Signal;HPM_P1;HPM_P2
2022/01/26 00:07:38;;;;;;;114.47;30.73;;;-1.10;99.90;;;;;;20748024;28;20041;-77
2022/01/26 00:17:39;;;;;;;100.30;29.70;;;-1.10;99.90;;;;;;20745465;28;20029;-77
2022/01/26 00:27:54;;;;;;;107.30;31.40;;;-1.00;99.90;;;;;;20744094;28;20032;-77
2022/01/26 00:48:19;;;;;;;159.20;37.70;;;-1.10;99.90;;;;;;20763786;28;20069;-77
2022/01/26 00:58:20;;;;;;;106.07;31.70;;;-1.10;99.90;;;;;;20752607;28;20038;-77
2022/01/26 01:08:23;;;;;;;119.90;32.42;;;-1.20;99.90;;;;;;20769950;28;20045;-77
2022/01/26 01:18:34;;;;;;;175.18;33.58;;;-1.10;99.90;;;;;;20752458;28;20428;-76
2022/01/26 01:39:09;;;;;;;191.65;36.95;;;-1.20;99.90;;;;;;20738848;28;20033;-77
2022/01/26 01:49:12;;;;;;;168.23;32.67;;;-1.20;99.90;;;;;;20772963;28;20761;-77
2022/01/26 01:59:13;;;;;;;144.15;34.75;;;-1.20;99.90;;;;;;20760621;28;20105;-77
2022/01/26 02:09:14;;;;;;;134.82;33.63;;;-1.10;99.90;;;;;;20755767;28;20451;-76
2022/01/26 03:00:58;;;;;;;120.43;30.23;;;-1.00;99.90;;;;;;20749815;28;20120;-75
2022/01/26 03:11:06;;;;;;;105.90;28.13;;;-1.20;99.90;;;;;;20750661;28;20476;-77
2022/01/26 03:21:10;;;;;;;107.30;29.35;;;-1.00;99.90;;;;;;20750736;28;20037;-77
2022/01/26 03:51:31;;;;;;;103.28;28.55;;;-1.10;99.90;;;;;;20746908;28;20033;-77
2022/01/26 04:01:32;;;;;;;95.32;25.17;;;-1.30;99.90;;;;;;20746046;28;20034;-77
2022/01/26 04:11:36;;;;;;;74.32;21.38;;;-1.50;99.90;;;;;;20741650;28;20041;-77
2022/01/26 04:31:41;;;;;;;122.40;28.23;;;-1.80;99.90;;;;;;20744366;28;20030;-77
2022/01/26 04:41:49;;;;;;;169.95;35.70;;;-1.70;99.90;;;;;;20752049;28;20139;-77
2022/01/26 04:51:50;;;;;;;133.40;29.95;;;-1.70;99.90;;;;;;20744792;28;20369;-77
2022/01/26 05:01:51;;;;;;;111.63;28.85;;;-1.80;99.90;;;;;;20753020;28;20054;-77
2022/01/26 05:11:54;;;;;;;97.90;26.15;;;-1.50;99.90;;;;;;20745071;28;20030;-77
2022/01/26 05:21:54;;;;;;;88.72;25.10;;;-1.70;99.90;;;;;;20743342;28;20026;-76
2022/01/26 05:31:55;;;;;;;67.55;20.33;;;-1.30;99.90;;;;;;20731328;28;20115;-77
2022/01/26 05:41:57;;;;;;;65.75;18.98;;;-1.20;99.90;;;;;;20743108;28;20040;-76
2022/01/26 05:51:58;;;;;;;66.88;19.88;;;-1.40;99.90;;;;;;20725403;28;20037;-77
2022/01/26 06:01:59;;;;;;;46.55;16.50;;;-1.30;99.90;;;;;;20757788;28;20050;-77
2022/01/26 06:11:59;;;;;;;47.55;15.38;;;-2.00;99.90;;;;;;20755840;28;20069;-77
2022/01/26 06:22:00;;;;;;;77.65;20.38;;;-2.20;99.90;;;;;;20774210;28;20493;-78
2022/01/26 06:32:01;;;;;;;93.82;22.55;;;-2.40;99.90;;;;;;20771534;28;20076;-78
2022/01/26 06:42:11;;;;;;;93.38;22.75;;;-2.30;99.90;;;;;;20750816;28;20041;-78
2022/01/26 06:52:12;;;;;;;43.97;12.60;;;-2.40;99.90;;;;;;20750496;28;20045;-78
2022/01/26 07:02:12;;;;;;;92.80;21.60;;;-2.40;99.90;;;;;;20766830;28;20033;-78
2022/01/26 07:12:13;;;;;;;89.97;20.98;;;-2.40;99.90;;;;;;20767873;28;20403;-78
2022/01/26 07:22:14;;;;;;;110.35;25.90;;;-2.40;99.90;;;;;;20754904;28;20040;-78
2022/01/26 07:32:15;;;;;;;88.65;22.73;;;-2.30;99.90;;;;;;20877417;22;20120;-74
2022/01/26 07:42:16;;;;;;;119.28;25.52;;;-2.40;99.90;;;;;;20911333;28;20035;-73
2022/01/26 07:52:20;;;;;;;102.75;26.85;;;-2.40;99.90;;;;;;20909300;28;20506;-73
2022/01/26 08:02:22;;;;;;;116.85;25.75;;;-2.20;99.90;;;;;;20908526;28;20033;-74
2022/01/26 08:12:23;;;;;;;88.32;22.70;;;-2.10;99.90;;;;;;20890462;28;20391;-74
2022/01/26 08:22:26;;;;;;;94.60;25.13;;;-2.10;99.90;;;;;;20907010;28;20037;-74
2022/01/26 08:32:27;;;;;;;99.80;24.40;;;-2.20;99.90;;;;;;20907221;28;20135;-74
2022/01/26 08:42:28;;;;;;;78.65;23.83;;;-2.30;99.90;;;;;;20907611;28;20495;-74
2022/01/26 08:52:29;;;;;;;95.38;26.08;;;-2.00;99.90;;;;;;20907091;28;20033;-74
2022/01/26 09:02:29;;;;;;;102.43;30.52;;;-1.80;99.90;;;;;;20907515;28;20074;-74
2022/01/26 09:12:33;;;;;;;91.82;26.58;;;-1.70;99.90;;;;;;20923066;28;20044;-73
2022/01/26 09:22:34;;;;;;;94.22;26.40;;;-1.70;99.90;;;;;;20922365;28;20060;-74
2022/01/26 09:32:36;;;;;;;91.13;24.98;;;-1.30;99.90;;;;;;20921382;28;20029;-74
2022/01/26 09:42:37;;;;;;;74.75;22.92;;;-1.00;99.90;;;;;;20920899;28;20490;-74
2022/01/26 09:52:45;;;;;;;53.45;18.73;;;-0.80;99.90;;;;;;20919879;28;20483;-74
2022/01/26 10:02:56;;;;;;;70.72;22.90;;;-0.80;99.90;;;;;;20918285;28;20032;-74
2022/01/26 10:23:22;;;;;;;69.75;21.45;;;-0.10;99.90;;;;;;20898667;28;20048;-74
2022/01/26 10:33:22;;;;;;;62.35;20.50;;;0.10;99.90;;;;;;20916668;28;20033;-75
2022/01/26 10:43:23;;;;;;;62.55;22.33;;;0.20;99.90;;;;;;20915939;28;20036;-74
2022/01/26 10:53:36;;;;;;;56.28;19.80;;;0.00;99.90;;;;;;20915242;28;20043;-75
2022/01/26 11:03:38;;;;;;;54.58;20.20;;;0.50;99.90;;;;;;20914851;28;20483;-74
2022/01/26 11:13:39;;;;;;;51.25;21.00;;;0.90;99.90;;;;;;20913575;28;20033;-74
2022/01/26 11:23:40;;;;;;;47.42;19.73;;;1.10;99.90;;;;;;20910804;28;20025;-74
2022/01/26 11:33:43;;;;;;;51.33;20.75;;;3.10;99.90;;;;;;20911754;28;20029;-74
2022/01/26 11:54:15;;;;;;;53.33;21.02;;;3.60;99.90;;;;;;20892236;28;20407;-74
2022/01/26 12:04:17;;;;;;;48.70;18.75;;;5.10;99.90;;;;;;20891639;28;20033;-74
2022/01/26 12:14:21;;;;;;;41.50;18.38;;;4.20;99.90;;;;;;20908920;28;20033;-74
2022/01/26 12:34:58;;;;;;;60.92;21.73;;;3.30;99.90;;;;;;20907787;28;20025;-73
2022/01/26 12:45:01;;;;;;;44.55;17.13;;;3.40;99.90;;;;;;20907022;28;20056;-73
2022/01/26 12:55:02;;;;;;;39.20;16.45;;;4.10;99.90;;;;;;20889237;28;20033;-73
2022/01/26 13:05:04;;;;;;;38.83;16.13;;;5.20;99.90;;;;;;20907009;28;20032;-74
2022/01/26 13:15:44;;;;;;;35.95;17.25;;;6.30;99.90;;;;;;20906676;28;20033;-74
2022/01/26 13:56:53;;;;;;;54.38;23.17;;;3.40;99.90;;;;;;20484377;28;20079;-74
2022/01/26 14:06:54;;;;;;;53.10;22.10;;;3.10;99.90;;;;;;20567307;28;20453;-77
2022/01/26 14:16:58;;;;;;;;;;;4.10;99.90;;;;;;20566727;28;20108;-76
2022/01/26 14:27:02;;;;;;;48.83;22.98;;;3.20;99.90;;;;;;20531117;28;19922;-77
2022/01/26 15:49:31;;;;;;;73.10;29.02;;;0.60;99.90;;;;;;20559563;28;20038;-76
2022/01/26 18:15:14;;;;;;;59.08;20.60;;;-1.20;99.90;;;;;;20590718;28;20450;-77
2022/01/26 18:54:34;;;;;;;60.60;23.20;;;-1.10;99.90;;;;;;20598046;28;20031;-76
2022/01/26 19:14:40;;;;;;;71.50;21.98;;;-1.10;99.90;;;;;;20589496;28;20520;-76
2022/01/26 19:55:44;;;;;;;71.18;27.00;;;-1.10;99.90;;;;;;20525930;28;20051;-75
2022/01/26 20:05:48;;;;;;;76.60;25.85;;;-1.40;99.90;;;;;;20613933;28;20043;-77
2022/01/26 20:15:49;;;;;;;73.68;25.52;;;-1.40;99.90;;;;;;20586653;28;20093;-78
2022/01/26 20:25:52;;;;;;;82.38;26.75;;;-1.30;99.90;;;;;;20583722;28;20027;-78
2022/01/26 20:35:53;;;;;;;69.25;24.67;;;-1.40;99.90;;;;;;20583780;28;20031;-77
2022/01/26 20:45:54;;;;;;;69.15;25.77;;;-1.40;99.90;;;;;;20583003;28;20180;-77
2022/01/26 20:55:56;;;;;;;71.85;26.83;;;-1.50;99.90;;;;;;20581673;28;20130;-77
2022/01/26 21:05:57;;;;;;;71.78;25.77;;;-1.50;99.90;;;;;;20603007;28;20077;-77
2022/01/26 21:15:57;;;;;;;83.22;27.73;;;-1.50;99.90;;;;;;20605221;28;20050;-77
2022/01/26 21:25:59;;;;;;;76.10;23.98;;;-1.60;99.90;;;;;;20583919;28;20039;-77
2022/01/26 21:36:04;;;;;;;73.50;26.80;;;-1.60;99.90;;;;;;20591972;28;20030;-77
2022/01/26 21:46:06;;;;;;;80.05;26.60;;;-1.60;99.90;;;;;;20554230;28;20038;-77
2022/01/26 21:56:07;;;;;;;96.28;27.92;;;-1.70;99.90;;;;;;20592086;28;20521;-77
2022/01/26 22:06:07;;;;;;;88.25;28.67;;;-1.80;99.90;;;;;;20578974;28;20591;-77
2022/01/26 22:16:09;;;;;;;90.15;27.35;;;-1.70;99.90;;;;;;20578546;28;20125;-77
2022/01/26 22:26:10;;;;;;;88.47;30.85;;;-1.70;99.90;;;;;;20592301;28;20049;-77
2022/01/26 22:36:11;;;;;;;88.97;29.48;;;-1.90;99.90;;;;;;20627259;28;20030;-77
2022/01/26 22:46:12;;;;;;;95.03;28.13;;;-1.90;99.90;;;;;;20665114;28;20076;-77
2022/01/26 22:56:13;;;;;;;94.85;27.10;;;-2.00;99.90;;;;;;20670403;28;20030;-77
2022/01/26 23:06:23;;;;;;;94.72;27.65;;;-2.00;99.90;;;;;;20669456;28;20455;-76
2022/01/26 23:16:24;;;;;;;107.95;30.33;;;-2.10;99.90;;;;;;20670623;28;20092;-77
2022/01/26 23:26:37;;;;;;;119.68;31.95;;;-2.10;99.90;;;;;;20650714;28;20453;-77
2022/01/26 23:37:13;;;;;;;103.88;28.75;;;-2.30;99.90;;;;;;20673733;28;20034;-77
